sensor_id;sensor_type;location;lat;lon;timestamp;temperature;humidity
16970;DHT22;8601;48.718;8.992;2022-10-28T00:01:37;14.90;99.90
16970;DHT22;8601;48.718;8.992;2022-10-28T00:04:04;14.90;99.90
16970;DHT22;8601;48.718;8.992;2022-10-28T00:06:33;14.90;99.90
16970;DHT22;8601;48.718;8.992;2022-10-28T00:09:01;14.90;99.90
16970;DHT22;8601;48.718;8.992;2022-10-28T00:11:30;14.90;99.90
16970;DHT22;8601;48.718;8.992;2022-10-28T00:13:59;14.90;99.90
16970;DHT22;8601;48.718;8.992;2022-10-28T00:16:29;14.90;99.90
16970;DHT22;8601;48.718;8.992;2022-10-28T00:18:57;14.80;99.90
16970;DHT22;8601;48.718;8.992;2022-10-28T00:21:27;14.80;99.90
16970;DHT22;8601;48.718;8.992;2022-10-28T00:23:56;14.80;99.90
16970;DHT22;8601;48.718;8.992;2022-10-28T00:26:24;14.80;99.90
16970;DHT22;8601;48.718;8.992;2022-10-28T00:28:55;14.90;99.90
16970;DHT22;8601;48.718;8.992;2022-10-28T00:31:24;14.90;99.90
16970;DHT22;8601;48.718;8.992;2022-10-28T00:33:52;14.90;99.90
16970;DHT22;8601;48.718;8.992;2022-10-28T00:36:21;15.00;99.90
16970;DHT22;8601;48.718;8.992;2022-10-28T00:38:51;14.90;99.90
16970;DHT22;8601;48.718;8.992;2022-10-28T00:41:22;14.90;99.90
16970;DHT22;8601;48.718;8.992;2022-10-28T00:43:50;14.90;99.90
16970;DHT22;8601;48.718;8.992;2022-10-28T00:46:23;14.90;99.90
16970;DHT22;8601;48.718;8.992;2022-10-28T00:48:56;14.90;99.90
16970;DHT22;8601;48.718;8.992;2022-10-28T00:51:25;14.90;99.90
16970;DHT22;8601;48.718;8.992;2022-10-28T00:53:54;14.90;99.90
16970;DHT22;8601;48.718;8.992;2022-10-28T00:56:54;14.80;99.90
16970;DHT22;8601;48.718;8.992;2022-10-28T00:59:26;14.80;99.90
16970;DHT22;8601;48.718;8.992;2022-10-28T01:01:53;14.80;99.90
16970;DHT22;8601;48.718;8.992;2022-10-28T01:04:22;14.80;99.90
16970;DHT22;8601;48.718;8.992;2022-10-28T01:06:50;14.80;99.90
16970;DHT22;8601;48.718;8.992;2022-10-28T01:09:17;14.80;99.90
16970;DHT22;8601;48.718;8.992;2022-10-28T01:11:52;14.80;99.90
16970;DHT22;8601;48.718;8.992;2022-10-28T01:14:30;14.80;99.90
16970;DHT22;8601;48.718;8.992;2022-10-28T01:23:43;14.70;99.90
16970;DHT22;8601;48.718;8.992;2022-10-28T01:26:45;14.70;99.90
16970;DHT22;8601;48.718;8.992;2022-10-28T01:29:35;14.80;99.90
16970;DHT22;8601;48.718;8.992;2022-10-28T01:32:10;14.70;99.90
16970;DHT22;8601;48.718;8.992;2022-10-28T01:34:47;14.70;99.90
16970;DHT22;8601;48.718;8.992;2022-10-28T01:37:18;14.60;99.90
16970;DHT22;8601;48.718;8.992;2022-10-28T01:39:50;14.60;99.90
16970;DHT22;8601;48.718;8.992;2022-10-28T01:42:25;14.60;99.90
16970;DHT22;8601;48.718;8.992;2022-10-28T01:45:01;14.60;99.90
16970;DHT22;8601;48.718;8.992;2022-10-28T01:47:33;14.60;99.90
16970;DHT22;8601;48.718;8.992;2022-10-28T01:50:06;14.60;99.90
16970;DHT22;8601;48.718;8.992;2022-10-28T01:52:35;14.60;99.90
16970;DHT22;8601;48.718;8.992;2022-10-28T01:55:25;14.60;99.90
16970;DHT22;8601;48.718;8.992;2022-10-28T01:57:54;14.60;99.90
16970;DHT22;8601;48.718;8.992;2022-10-28T02:00:22;14.60;99.90
16970;DHT22;8601;48.718;8.992;2022-10-28T02:02:50;14.60;99.90
16970;DHT22;8601;48.718;8.992;2022-10-28T02:05:38;14.60;99.90
16970;DHT22;8601;48.718;8.992;2022-10-28T02:08:21;14.60;99.90
16970;DHT22;8601;48.718;8.992;2022-10-28T02:11:03;14.60;99.90
16970;DHT22;8601;48.718;8.992;2022-10-28T02:13:41;14.60;99.90
16970;DHT22;8601;48.718;8.992;2022-10-28T02:16:19;14.50;99.90
16970;DHT22;8601;48.718;8.992;2022-10-28T02:18:58;14.50;99.90
16970;DHT22;8601;48.718;8.992;2022-10-28T02:21:33;14.50;99.90
16970;DHT22;8601;48.718;8.992;2022-10-28T02:24:07;14.50;99.90
16970;DHT22;8601;48.718;8.992;2022-10-28T02:26:39;14.60;99.90
16970;DHT22;8601;48.718;8.992;2022-10-28T02:29:13;14.60;99.90
16970;DHT22;8601;48.718;8.992;2022-10-28T02:31:44;14.60;99.90
16970;DHT22;8601;48.718;8.992;2022-10-28T02:34:17;14.50;99.90
16970;DHT22;8601;48.718;8.992;2022-10-28T02:36:49;14.60;99.90
16970;DHT22;8601;48.718;8.992;2022-10-28T02:39:19;14.60;99.90
16970;DHT22;8601;48.718;8.992;2022-10-28T02:41:50;14.50;99.90
16970;DHT22;8601;48.718;8.992;2022-10-28T02:44:24;14.60;99.90
16970;DHT22;8601;48.718;8.992;2022-10-28T02:46:54;14.60;99.90
16970;DHT22;8601;48.718;8.992;2022-10-28T02:49:24;14.60;99.90
16970;DHT22;8601;48.718;8.992;2022-10-28T02:51:56;14.50;99.90
16970;DHT22;8601;48.718;8.992;2022-10-28T02:54:28;14.50;99.90
16970;DHT22;8601;48.718;8.992;2022-10-28T02:57:00;14.50;99.90
16970;DHT22;8601;48.718;8.992;2022-10-28T02:59:29;14.50;99.90
16970;DHT22;8601;48.718;8.992;2022-10-28T03:01:56;14.50;99.90
16970;DHT22;8601;48.718;8.992;2022-10-28T03:04:25;14.40;99.90
16970;DHT22;8601;48.718;8.992;2022-10-28T03:06:51;14.50;99.90
16970;DHT22;8601;48.718;8.992;2022-10-28T03:09:18;14.50;99.90
16970;DHT22;8601;48.718;8.992;2022-10-28T03:11:45;14.50;99.90
16970;DHT22;8601;48.718;8.992;2022-10-28T03:14:12;14.50;99.90
16970;DHT22;8601;48.718;8.992;2022-10-28T03:16:39;14.60;99.90
16970;DHT22;8601;48.718;8.992;2022-10-28T03:19:06;14.50;99.90
16970;DHT22;8601;48.718;8.992;2022-10-28T03:21:34;14.50;99.90
16970;DHT22;8601;48.718;8.992;2022-10-28T03:24:01;14.50;99.90
16970;DHT22;8601;48.718;8.992;2022-10-28T03:26:28;14.60;99.90
16970;DHT22;8601;48.718;8.992;2022-10-28T03:28:55;14.60;99.90
16970;DHT22;8601;48.718;8.992;2022-10-28T03:31:22;14.60;99.90
16970;DHT22;8601;48.718;8.992;2022-10-28T03:33:49;14.70;99.90
16970;DHT22;8601;48.718;8.992;2022-10-28T03:36:15;14.70;99.90
16970;DHT22;8601;48.718;8.992;2022-10-28T03:38:44;14.70;99.90
16970;DHT22;8601;48.718;8.992;2022-10-28T03:41:17;14.70;99.90
16970;DHT22;8601;48.718;8.992;2022-10-28T03:43:44;14.70;99.90
16970;DHT22;8601;48.718;8.992;2022-10-28T03:46:11;14.80;99.90
16970;DHT22;8601;48.718;8.992;2022-10-28T03:48:38;14.80;99.90
16970;DHT22;8601;48.718;8.992;2022-10-28T03:51:05;14.90;99.90
16970;DHT22;8601;48.718;8.992;2022-10-28T03:53:45;14.90;99.90
16970;DHT22;8601;48.718;8.992;2022-10-28T03:56:12;15.00;99.90
16970;DHT22;8601;48.718;8.992;2022-10-28T03:58:39;15.00;99.90
16970;DHT22;8601;48.718;8.992;2022-10-28T04:01:06;15.00;99.90
16970;DHT22;8601;48.718;8.992;2022-10-28T04:03:33;15.00;99.90
16970;DHT22;8601;48.718;8.992;2022-10-28T04:06:11;15.00;99.90
16970;DHT22;8601;48.718;8.992;2022-10-28T04:08:38;15.00;99.90
16970;DHT22;8601;48.718;8.992;2022-10-28T04:11:07;15.10;99.90
16970;DHT22;8601;48.718;8.992;2022-10-28T04:13:34;15.10;99.90
16970;DHT22;8601;48.718;8.992;2022-10-28T04:16:15;15.10;99.90
16970;DHT22;8601;48.718;8.992;2022-10-28T04:18:42;15.10;99.90
16970;DHT22;8601;48.718;8.992;2022-10-28T04:21:09;15.10;99.90
16970;DHT22;8601;48.718;8.992;2022-10-28T04:23:35;15.10;99.90
16970;DHT22;8601;48.718;8.992;2022-10-28T04:26:02;15.00;99.90
16970;DHT22;8601;48.718;8.992;2022-10-28T04:28:31;15.00;99.90
16970;DHT22;8601;48.718;8.992;2022-10-28T04:30:58;15.20;99.90
16970;DHT22;8601;48.718;8.992;2022-10-28T04:33:26;15.20;99.90
16970;DHT22;8601;48.718;8.992;2022-10-28T04:35:53;15.20;99.90
16970;DHT22;8601;48.718;8.992;2022-10-28T04:38:20;15.20;99.90
16970;DHT22;8601;48.718;8.992;2022-10-28T04:41:12;15.10;99.90
16970;DHT22;8601;48.718;8.992;2022-10-28T04:46:57;15.20;99.90
16970;DHT22;8601;48.718;8.992;2022-10-28T04:49:52;15.20;99.90
16970;DHT22;8601;48.718;8.992;2022-10-28T04:52:27;15.30;99.90
16970;DHT22;8601;48.718;8.992;2022-10-28T04:54:57;15.30;99.90
16970;DHT22;8601;48.718;8.992;2022-10-28T04:57:26;15.30;99.90
16970;DHT22;8601;48.718;8.992;2022-10-28T05:00:01;15.30;99.90
16970;DHT22;8601;48.718;8.992;2022-10-28T05:02:30;15.30;99.90
16970;DHT22;8601;48.718;8.992;2022-10-28T05:04:57;15.30;99.90
16970;DHT22;8601;48.718;8.992;2022-10-28T05:07:28;15.20;99.90
16970;DHT22;8601;48.718;8.992;2022-10-28T05:09:55;15.20;99.90
16970;DHT22;8601;48.718;8.992;2022-10-28T05:12:31;15.20;99.90
16970;DHT22;8601;48.718;8.992;2022-10-28T05:14:58;15.20;99.90
16970;DHT22;8601;48.718;8.992;2022-10-28T05:17:25;15.20;99.90
16970;DHT22;8601;48.718;8.992;2022-10-28T05:19:53;15.10;99.90
16970;DHT22;8601;48.718;8.992;2022-10-28T05:22:20;15.10;99.90
16970;DHT22;8601;48.718;8.992;2022-10-28T05:24:47;15.10;99.90
16970;DHT22;8601;48.718;8.992;2022-10-28T05:27:14;15.10;99.90
16970;DHT22;8601;48.718;8.992;2022-10-28T05:29:41;15.10;99.90
16970;DHT22;8601;48.718;8.992;2022-10-28T05:32:09;15.10;99.90
16970;DHT22;8601;48.718;8.992;2022-10-28T05:34:36;15.10;99.90
16970;DHT22;8601;48.718;8.992;2022-10-28T05:37:04;15.10;99.90
16970;DHT22;8601;48.718;8.992;2022-10-28T05:39:31;15.10;99.90
16970;DHT22;8601;48.718;8.992;2022-10-28T05:41:58;15.10;99.90
16970;DHT22;8601;48.718;8.992;2022-10-28T05:44:25;15.10;99.90
16970;DHT22;8601;48.718;8.992;2022-10-28T05:46:52;15.00;99.90
16970;DHT22;8601;48.718;8.992;2022-10-28T05:49:21;15.10;99.90
16970;DHT22;8601;48.718;8.992;2022-10-28T05:51:49;15.10;99.90
16970;DHT22;8601;48.718;8.992;2022-10-28T05:54:23;15.10;99.90
16970;DHT22;8601;48.718;8.992;2022-10-28T05:56:51;15.10;99.90
16970;DHT22;8601;48.718;8.992;2022-10-28T05:59:17;15.10;99.90
16970;DHT22;8601;48.718;8.992;2022-10-28T06:01:44;15.00;99.90
16970;DHT22;8601;48.718;8.992;2022-10-28T06:04:11;15.00;99.90
16970;DHT22;8601;48.718;8.992;2022-10-28T06:06:38;15.00;99.90
16970;DHT22;8601;48.718;8.992;2022-10-28T06:09:05;15.00;99.90
16970;DHT22;8601;48.718;8.992;2022-10-28T06:11:46;15.00;99.90
16970;DHT22;8601;48.718;8.992;2022-10-28T06:14:13;15.00;99.90
16970;DHT22;8601;48.718;8.992;2022-10-28T06:16:40;15.00;99.90
16970;DHT22;8601;48.718;8.992;2022-10-28T06:19:08;15.00;99.90
16970;DHT22;8601;48.718;8.992;2022-10-28T06:21:35;15.00;99.90
16970;DHT22;8601;48.718;8.992;2022-10-28T06:24:02;15.00;99.90
16970;DHT22;8601;48.718;8.992;2022-10-28T06:26:28;15.00;99.90
16970;DHT22;8601;48.718;8.992;2022-10-28T06:29:10;15.10;99.90
16970;DHT22;8601;48.718;8.992;2022-10-28T06:31:52;15.10;99.90
16970;DHT22;8601;48.718;8.992;2022-10-28T06:34:19;15.10;99.90
16970;DHT22;8601;48.718;8.992;2022-10-28T06:36:46;15.10;99.90
16970;DHT22;8601;48.718;8.992;2022-10-28T06:39:13;15.20;99.90
16970;DHT22;8601;48.718;8.992;2022-10-28T06:41:40;15.20;99.90
16970;DHT22;8601;48.718;8.992;2022-10-28T06:44:07;15.20;99.90
16970;DHT22;8601;48.718;8.992;2022-10-28T06:46:35;15.30;99.90
16970;DHT22;8601;48.718;8.992;2022-10-28T06:49:02;15.40;99.90
16970;DHT22;8601;48.718;8.992;2022-10-28T06:51:30;15.50;99.90
16970;DHT22;8601;48.718;8.992;2022-10-28T06:54:06;15.50;99.90
16970;DHT22;8601;48.718;8.992;2022-10-28T06:56:32;15.60;99.90
16970;DHT22;8601;48.718;8.992;2022-10-28T06:58:59;15.60;99.90
16970;DHT22;8601;48.718;8.992;2022-10-28T07:01:26;15.80;99.90
16970;DHT22;8601;48.718;8.992;2022-10-28T07:04:05;15.70;99.90
16970;DHT22;8601;48.718;8.992;2022-10-28T07:06:32;15.70;99.90
16970;DHT22;8601;48.718;8.992;2022-10-28T07:09:01;15.70;99.90
16970;DHT22;8601;48.718;8.992;2022-10-28T07:11:28;15.60;99.90
16970;DHT22;8601;48.718;8.992;2022-10-28T07:13:55;15.50;99.90
16970;DHT22;8601;48.718;8.992;2022-10-28T07:16:23;15.50;99.90
16970;DHT22;8601;48.718;8.992;2022-10-28T07:18:50;15.40;99.90
16970;DHT22;8601;48.718;8.992;2022-10-28T07:21:31;15.50;99.90
16970;DHT22;8601;48.718;8.992;2022-10-28T07:23:58;15.50;99.90
16970;DHT22;8601;48.718;8.992;2022-10-28T07:26:25;15.60;99.90
16970;DHT22;8601;48.718;8.992;2022-10-28T07:28:52;15.60;99.90
16970;DHT22;8601;48.718;8.992;2022-10-28T07:31:27;15.60;99.90
16970;DHT22;8601;48.718;8.992;2022-10-28T07:33:55;15.70;99.90
16970;DHT22;8601;48.718;8.992;2022-10-28T07:36:29;15.70;99.90
16970;DHT22;8601;48.718;8.992;2022-10-28T07:38:57;15.80;99.90
16970;DHT22;8601;48.718;8.992;2022-10-28T07:41:24;15.80;99.90
16970;DHT22;8601;48.718;8.992;2022-10-28T07:44:01;15.70;99.90
16970;DHT22;8601;48.718;8.992;2022-10-28T07:46:28;15.70;99.90
16970;DHT22;8601;48.718;8.992;2022-10-28T07:49:06;15.70;99.90
16970;DHT22;8601;48.718;8.992;2022-10-28T07:51:33;15.70;99.90
16970;DHT22;8601;48.718;8.992;2022-10-28T07:54:03;15.80;99.90
16970;DHT22;8601;48.718;8.992;2022-10-28T07:56:32;15.80;99.90
16970;DHT22;8601;48.718;8.992;2022-10-28T07:58:59;15.80;99.90
16970;DHT22;8601;48.718;8.992;2022-10-28T08:01:28;15.80;99.90
16970;DHT22;8601;48.718;8.992;2022-10-28T08:03:56;15.80;99.90
16970;DHT22;8601;48.718;8.992;2022-10-28T08:06:23;15.80;99.90
16970;DHT22;8601;48.718;8.992;2022-10-28T08:08:53;15.90;99.90
16970;DHT22;8601;48.718;8.992;2022-10-28T08:11:23;15.90;99.90
16970;DHT22;8601;48.718;8.992;2022-10-28T08:13:51;16.00;99.90
16970;DHT22;8601;48.718;8.992;2022-10-28T08:16:22;16.10;99.90
16970;DHT22;8601;48.718;8.992;2022-10-28T08:18:49;16.20;99.90
16970;DHT22;8601;48.718;8.992;2022-10-28T08:21:17;16.20;99.90
16970;DHT22;8601;48.718;8.992;2022-10-28T08:23:44;16.20;99.90
16970;DHT22;8601;48.718;8.992;2022-10-28T08:26:29;16.30;99.90
16970;DHT22;8601;48.718;8.992;2022-10-28T08:28:55;16.40;99.90
16970;DHT22;8601;48.718;8.992;2022-10-28T08:31:22;16.50;99.90
16970;DHT22;8601;48.718;8.992;2022-10-28T08:33:49;16.60;99.90
16970;DHT22;8601;48.718;8.992;2022-10-28T08:36:17;16.60;99.90
16970;DHT22;8601;48.718;8.992;2022-10-28T08:38:52;16.70;99.90
16970;DHT22;8601;48.718;8.992;2022-10-28T08:41:27;16.70;99.90
16970;DHT22;8601;48.718;8.992;2022-10-28T08:44:18;16.80;99.90
16970;DHT22;8601;48.718;8.992;2022-10-28T08:46:57;16.90;99.90
16970;DHT22;8601;48.718;8.992;2022-10-28T08:49:40;16.90;99.90
16970;DHT22;8601;48.718;8.992;2022-10-28T08:52:15;17.00;99.90
16970;DHT22;8601;48.718;8.992;2022-10-28T08:54:51;17.10;99.90
16970;DHT22;8601;48.718;8.992;2022-10-28T08:57:22;17.20;99.90
16970;DHT22;8601;48.718;8.992;2022-10-28T08:59:56;17.30;99.70
16970;DHT22;8601;48.718;8.992;2022-10-28T09:02:28;17.40;99.40
16970;DHT22;8601;48.718;8.992;2022-10-28T09:05:06;17.50;99.30
16970;DHT22;8601;48.718;8.992;2022-10-28T09:07:40;17.60;99.50
16970;DHT22;8601;48.718;8.992;2022-10-28T09:10:12;17.60;99.00
16970;DHT22;8601;48.718;8.992;2022-10-28T09:12:46;17.70;98.20
16970;DHT22;8601;48.718;8.992;2022-10-28T09:15:23;17.80;98.30
16970;DHT22;8601;48.718;8.992;2022-10-28T09:18:09;17.80;98.60
16970;DHT22;8601;48.718;8.992;2022-10-28T09:20:49;17.80;98.90
16970;DHT22;8601;48.718;8.992;2022-10-28T09:23:21;17.80;99.90
16970;DHT22;8601;48.718;8.992;2022-10-28T09:25:57;17.80;99.90
16970;DHT22;8601;48.718;8.992;2022-10-28T09:28:40;17.80;99.90
16970;DHT22;8601;48.718;8.992;2022-10-28T09:31:16;17.70;99.90
16970;DHT22;8601;48.718;8.992;2022-10-28T09:33:53;17.80;99.90
16970;DHT22;8601;48.718;8.992;2022-10-28T09:36:49;17.90;99.50
16970;DHT22;8601;48.718;8.992;2022-10-28T09:39:19;18.00;97.40
16970;DHT22;8601;48.718;8.992;2022-10-28T09:41:48;18.30;97.50
16970;DHT22;8601;48.718;8.992;2022-10-28T09:44:19;18.40;97.20
16970;DHT22;8601;48.718;8.992;2022-10-28T09:46:51;18.70;96.70
16970;DHT22;8601;48.718;8.992;2022-10-28T09:49:23;19.10;96.70
16970;DHT22;8601;48.718;8.992;2022-10-28T09:51:54;19.20;96.80
16970;DHT22;8601;48.718;8.992;2022-10-28T09:54:29;19.30;97.00
16970;DHT22;8601;48.718;8.992;2022-10-28T09:56:57;19.30;94.50
16970;DHT22;8601;48.718;8.992;2022-10-28T09:59:24;19.30;94.30
16970;DHT22;8601;48.718;8.992;2022-10-28T10:01:53;19.20;95.40
16970;DHT22;8601;48.718;8.992;2022-10-28T10:04:21;19.20;95.50
16970;DHT22;8601;48.718;8.992;2022-10-28T10:06:51;19.20;94.80
16970;DHT22;8601;48.718;8.992;2022-10-28T10:09:22;19.20;96.10
16970;DHT22;8601;48.718;8.992;2022-10-28T10:11:53;19.20;95.20
16970;DHT22;8601;48.718;8.992;2022-10-28T10:14:25;19.30;95.40
16970;DHT22;8601;48.718;8.992;2022-10-28T10:16:58;19.20;96.70
16970;DHT22;8601;48.718;8.992;2022-10-28T10:19:25;19.10;99.90
16970;DHT22;8601;48.718;8.992;2022-10-28T10:21:53;19.00;99.90
16970;DHT22;8601;48.718;8.992;2022-10-28T10:24:27;19.00;99.60
16970;DHT22;8601;48.718;8.992;2022-10-28T10:26:56;19.00;98.70
16970;DHT22;8601;48.718;8.992;2022-10-28T10:29:23;19.00;98.20
16970;DHT22;8601;48.718;8.992;2022-10-28T10:32:06;19.10;96.50
16970;DHT22;8601;48.718;8.992;2022-10-28T10:34:33;19.20;97.70
16970;DHT22;8601;48.718;8.992;2022-10-28T10:37:02;19.20;99.20
16970;DHT22;8601;48.718;8.992;2022-10-28T10:39:33;19.20;97.00
16970;DHT22;8601;48.718;8.992;2022-10-28T10:42:01;19.20;97.20
16970;DHT22;8601;48.718;8.992;2022-10-28T10:44:37;19.20;97.00
16970;DHT22;8601;48.718;8.992;2022-10-28T10:47:19;19.30;96.70
16970;DHT22;8601;48.718;8.992;2022-10-28T10:49:47;19.30;96.60
16970;DHT22;8601;48.718;8.992;2022-10-28T10:52:23;19.30;97.30
16970;DHT22;8601;48.718;8.992;2022-10-28T10:54:58;19.40;96.20
16970;DHT22;8601;48.718;8.992;2022-10-28T10:57:51;19.60;95.60
16970;DHT22;8601;48.718;8.992;2022-10-28T11:00:20;19.80;94.70
16970;DHT22;8601;48.718;8.992;2022-10-28T11:03:05;19.90;95.40
16970;DHT22;8601;48.718;8.992;2022-10-28T11:05:33;20.00;94.00
16970;DHT22;8601;48.718;8.992;2022-10-28T11:08:00;20.00;94.60
16970;DHT22;8601;48.718;8.992;2022-10-28T11:10:31;20.00;95.50
16970;DHT22;8601;48.718;8.992;2022-10-28T11:13:03;19.90;94.80
16970;DHT22;8601;48.718;8.992;2022-10-28T11:15:31;20.00;93.50
16970;DHT22;8601;48.718;8.992;2022-10-28T11:18:01;20.10;95.70
16970;DHT22;8601;48.718;8.992;2022-10-28T11:20:38;20.10;95.70
16970;DHT22;8601;48.718;8.992;2022-10-28T11:23:25;20.20;94.00
16970;DHT22;8601;48.718;8.992;2022-10-28T11:25:59;20.30;93.70
16970;DHT22;8601;48.718;8.992;2022-10-28T11:28:56;20.30;94.30
16970;DHT22;8601;48.718;8.992;2022-10-28T11:34:50;20.20;94.60
16970;DHT22;8601;48.718;8.992;2022-10-28T11:37:28;20.10;96.20
16970;DHT22;8601;48.718;8.992;2022-10-28T11:40:06;20.20;93.50
16970;DHT22;8601;48.718;8.992;2022-10-28T11:42:44;20.90;90.30
16970;DHT22;8601;48.718;8.992;2022-10-28T11:45:21;21.00;92.40
16970;DHT22;8601;48.718;8.992;2022-10-28T11:48:04;20.90;92.10
16970;DHT22;8601;48.718;8.992;2022-10-28T11:50:45;20.90;92.80
16970;DHT22;8601;48.718;8.992;2022-10-28T11:53:35;20.80;93.10
16970;DHT22;8601;48.718;8.992;2022-10-28T11:56:16;20.80;94.70
16970;DHT22;8601;48.718;8.992;2022-10-28T11:58:51;20.70;94.60
16970;DHT22;8601;48.718;8.992;2022-10-28T12:01:38;20.60;95.10
16970;DHT22;8601;48.718;8.992;2022-10-28T12:04:26;20.60;94.30
16970;DHT22;8601;48.718;8.992;2022-10-28T12:13:16;21.20;94.10
16970;DHT22;8601;48.718;8.992;2022-10-28T12:15:50;21.50;94.20
16970;DHT22;8601;48.718;8.992;2022-10-28T12:18:24;21.60;94.00
16970;DHT22;8601;48.718;8.992;2022-10-28T12:20:56;21.70;94.00
16970;DHT22;8601;48.718;8.992;2022-10-28T12:23:32;21.90;92.50
16970;DHT22;8601;48.718;8.992;2022-10-28T12:26:10;22.00;91.60
16970;DHT22;8601;48.718;8.992;2022-10-28T12:28:51;22.00;92.40
16970;DHT22;8601;48.718;8.992;2022-10-28T12:31:23;22.00;91.60
16970;DHT22;8601;48.718;8.992;2022-10-28T12:33:54;21.90;90.80
16970;DHT22;8601;48.718;8.992;2022-10-28T12:36:40;22.00;90.50
16970;DHT22;8601;48.718;8.992;2022-10-28T12:39:14;22.20;90.00
16970;DHT22;8601;48.718;8.992;2022-10-28T12:41:46;22.40;88.60
16970;DHT22;8601;48.718;8.992;2022-10-28T12:44:21;22.50;88.50
16970;DHT22;8601;48.718;8.992;2022-10-28T12:46:56;22.70;86.40
16970;DHT22;8601;48.718;8.992;2022-10-28T12:49:34;22.70;88.30
16970;DHT22;8601;48.718;8.992;2022-10-28T12:52:12;22.70;86.40
16970;DHT22;8601;48.718;8.992;2022-10-28T12:54:47;22.70;85.70
16970;DHT22;8601;48.718;8.992;2022-10-28T12:57:19;22.60;86.30
16970;DHT22;8601;48.718;8.992;2022-10-28T12:59:53;22.60;87.00
16970;DHT22;8601;48.718;8.992;2022-10-28T13:02:25;22.70;86.90
16970;DHT22;8601;48.718;8.992;2022-10-28T13:04:56;22.90;87.00
16970;DHT22;8601;48.718;8.992;2022-10-28T13:07:42;23.10;84.80
16970;DHT22;8601;48.718;8.992;2022-10-28T13:10:20;23.30;86.50
16970;DHT22;8601;48.718;8.992;2022-10-28T13:13:21;23.30;86.20
16970;DHT22;8601;48.718;8.992;2022-10-28T13:16:06;23.40;85.00
16970;DHT22;8601;48.718;8.992;2022-10-28T13:22:16;23.50;84.80
16970;DHT22;8601;48.718;8.992;2022-10-28T13:24:51;23.40;82.30
16970;DHT22;8601;48.718;8.992;2022-10-28T13:27:21;23.10;80.80
16970;DHT22;8601;48.718;8.992;2022-10-28T13:29:51;23.00;81.40
16970;DHT22;8601;48.718;8.992;2022-10-28T13:32:36;22.80;83.30
16970;DHT22;8601;48.718;8.992;2022-10-28T13:35:11;22.60;82.80
16970;DHT22;8601;48.718;8.992;2022-10-28T13:37:40;22.40;83.90
16970;DHT22;8601;48.718;8.992;2022-10-28T13:40:20;22.30;85.60
16970;DHT22;8601;48.718;8.992;2022-10-28T13:42:59;22.20;85.10
16970;DHT22;8601;48.718;8.992;2022-10-28T13:45:46;22.10;85.40
16970;DHT22;8601;48.718;8.992;2022-10-28T13:48:46;22.20;87.90
16970;DHT22;8601;48.718;8.992;2022-10-28T13:51:46;22.30;85.30
16970;DHT22;8601;48.718;8.992;2022-10-28T13:54:31;22.50;85.60
16970;DHT22;8601;48.718;8.992;2022-10-28T13:57:06;22.70;84.90
16970;DHT22;8601;48.718;8.992;2022-10-28T13:59:48;22.80;85.10
16970;DHT22;8601;48.718;8.992;2022-10-28T14:02:21;23.00;85.10
16970;DHT22;8601;48.718;8.992;2022-10-28T14:05:01;23.00;84.40
16970;DHT22;8601;48.718;8.992;2022-10-28T14:07:30;23.00;85.30
16970;DHT22;8601;48.718;8.992;2022-10-28T14:10:21;23.00;84.00
16970;DHT22;8601;48.718;8.992;2022-10-28T14:12:51;23.00;86.00
16970;DHT22;8601;48.718;8.992;2022-10-28T14:15:23;23.00;87.50
16970;DHT22;8601;48.718;8.992;2022-10-28T14:17:57;23.00;85.90
16970;DHT22;8601;48.718;8.992;2022-10-28T14:20:32;23.00;87.20
16970;DHT22;8601;48.718;8.992;2022-10-28T14:26:10;22.80;88.00
16970;DHT22;8601;48.718;8.992;2022-10-28T14:28:51;22.70;87.90
16970;DHT22;8601;48.718;8.992;2022-10-28T14:31:41;22.70;87.90
16970;DHT22;8601;48.718;8.992;2022-10-28T14:34:35;22.60;86.60
16970;DHT22;8601;48.718;8.992;2022-10-28T14:37:49;22.50;88.50
16970;DHT22;8601;48.718;8.992;2022-10-28T14:40:30;22.50;86.90
16970;DHT22;8601;48.718;8.992;2022-10-28T14:43:09;22.40;88.60
16970;DHT22;8601;48.718;8.992;2022-10-28T14:45:43;22.30;88.30
16970;DHT22;8601;48.718;8.992;2022-10-28T14:48:39;22.40;86.80
16970;DHT22;8601;48.718;8.992;2022-10-28T14:51:11;22.40;86.00
16970;DHT22;8601;48.718;8.992;2022-10-28T14:53:41;22.30;86.50
16970;DHT22;8601;48.718;8.992;2022-10-28T14:56:20;22.30;85.00
16970;DHT22;8601;48.718;8.992;2022-10-28T14:58:49;22.30;85.60
16970;DHT22;8601;48.718;8.992;2022-10-28T15:01:27;22.20;86.30
16970;DHT22;8601;48.718;8.992;2022-10-28T15:04:04;22.20;85.20
16970;DHT22;8601;48.718;8.992;2022-10-28T15:06:37;22.30;83.90
16970;DHT22;8601;48.718;8.992;2022-10-28T15:09:15;22.30;84.60
16970;DHT22;8601;48.718;8.992;2022-10-28T15:11:45;22.20;86.30
16970;DHT22;8601;48.718;8.992;2022-10-28T15:14:14;22.10;87.30
16970;DHT22;8601;48.718;8.992;2022-10-28T15:16:48;22.00;88.70
16970;DHT22;8601;48.718;8.992;2022-10-28T15:19:18;21.80;90.00
16970;DHT22;8601;48.718;8.992;2022-10-28T15:24:55;21.70;90.00
16970;DHT22;8601;48.718;8.992;2022-10-28T15:27:26;21.70;87.70
16970;DHT22;8601;48.718;8.992;2022-10-28T15:29:53;21.60;89.20
16970;DHT22;8601;48.718;8.992;2022-10-28T15:32:27;21.60;89.50
16970;DHT22;8601;48.718;8.992;2022-10-28T15:34:55;21.60;87.90
16970;DHT22;8601;48.718;8.992;2022-10-28T15:37:35;21.60;89.10
16970;DHT22;8601;48.718;8.992;2022-10-28T15:40:19;21.50;88.40
16970;DHT22;8601;48.718;8.992;2022-10-28T15:42:50;21.50;90.10
16970;DHT22;8601;48.718;8.992;2022-10-28T15:45:22;21.40;88.60
16970;DHT22;8601;48.718;8.992;2022-10-28T15:47:49;21.30;89.40
16970;DHT22;8601;48.718;8.992;2022-10-28T15:50:23;21.30;89.80
16970;DHT22;8601;48.718;8.992;2022-10-28T15:52:51;21.20;89.80
16970;DHT22;8601;48.718;8.992;2022-10-28T15:55:31;21.10;90.00
16970;DHT22;8601;48.718;8.992;2022-10-28T15:58:00;21.00;90.00
16970;DHT22;8601;48.718;8.992;2022-10-28T16:00:30;21.00;90.10
16970;DHT22;8601;48.718;8.992;2022-10-28T16:02:58;21.00;90.50
16970;DHT22;8601;48.718;8.992;2022-10-28T16:05:44;20.90;90.40
16970;DHT22;8601;48.718;8.992;2022-10-28T16:08:16;20.90;89.90
16970;DHT22;8601;48.718;8.992;2022-10-28T16:10:48;20.90;91.00
16970;DHT22;8601;48.718;8.992;2022-10-28T16:13:22;20.80;90.60
16970;DHT22;8601;48.718;8.992;2022-10-28T16:15:53;20.70;90.50
16970;DHT22;8601;48.718;8.992;2022-10-28T16:18:22;20.60;91.10
16970;DHT22;8601;48.718;8.992;2022-10-28T16:20:51;20.50;91.10
16970;DHT22;8601;48.718;8.992;2022-10-28T16:23:20;20.40;91.60
16970;DHT22;8601;48.718;8.992;2022-10-28T16:25:49;20.30;91.20
16970;DHT22;8601;48.718;8.992;2022-10-28T16:28:20;20.30;91.50
16970;DHT22;8601;48.718;8.992;2022-10-28T16:30:50;20.30;91.50
16970;DHT22;8601;48.718;8.992;2022-10-28T16:33:18;20.20;91.50
16970;DHT22;8601;48.718;8.992;2022-10-28T16:35:47;20.20;91.70
16970;DHT22;8601;48.718;8.992;2022-10-28T16:38:19;20.20;91.80
16970;DHT22;8601;48.718;8.992;2022-10-28T16:40:52;20.20;91.90
16970;DHT22;8601;48.718;8.992;2022-10-28T16:43:20;20.20;91.90
16970;DHT22;8601;48.718;8.992;2022-10-28T16:45:49;20.20;92.10
16970;DHT22;8601;48.718;8.992;2022-10-28T16:48:17;20.10;92.10
16970;DHT22;8601;48.718;8.992;2022-10-28T16:50:48;20.00;92.00